Time;durP1;ratioP1;P1;durP2;ratioP2;P2;SDS_P1;SDS_P2;PMS_P1;PMS_P2;Temp;Humidity;BMP_temperature;BMP_pressure;BME280_temperature;BME280_humidity;BME280_pressure;Samples;Min_cycle;Max_cycle;Signal;HPM_P1;HPM_P2
2023/03/01 00:01:18;;;;;;;;;;;;;;;-3.99;65.76;102422.27;105069;1288;62004;-80
2023/03/01 00:04:05;;;;;;;;;;;;;;;-3.98;65.80;102416.05;105051;1290;73589;-80
2023/03/01 00:06:51;;;;;;;;;;;;;;;-4.00;65.81;102412.11;105196;1288;68392;-80
2023/03/01 00:09:39;;;;;;;;;;;;;;;-4.01;65.79;102408.34;105001;1288;70098;-80
2023/03/01 00:12:25;;;;;;;;;;;;;;;-3.98;65.85;102401.73;105014;1292;59829;-79
2023/03/01 00:15:12;;;;;;;;;;;;;;;-3.94;65.99;102398.66;105118;1288;59793;-80
2023/03/01 00:17:58;;;;;;;;;;;;;;;-3.93;65.86;102398.91;105139;1288;75428;-80
2023/03/01 00:20:53;;;;;;;;;;;;;;;-3.93;66.03;102397.39;105149;1288;67228;-80
2023/03/01 00:23:39;;;;;;;;;;;;;;;-3.93;65.95;102394.18;105078;1288;73241;-80
2023/03/01 00:26:26;;;;;;;;;;;;;;;-3.95;65.89;102392.84;105107;1290;61993;-80
2023/03/01 00:29:12;;;;;;;;;;;;;;;-3.99;65.71;102391.90;104962;1288;62077;-80
2023/03/01 00:31:59;;;;;;;;;;;;;;;-4.01;65.81;102391.94;105083;1293;74592;-80
2023/03/01 00:34:53;;;;;;;;;;;;;;;-4.05;65.79;102394.36;105071;1288;67249;-80
2023/03/01 00:37:41;;;;;;;;;;;;;;;-4.09;65.83;102394.13;105062;1288;71238;-80
2023/03/01 00:40:28;;;;;;;;;;;;;;;-4.12;65.81;102395.86;105207;1288;60188;-80
2023/03/01 00:43:14;;;;;;;;;;;;;;;-4.13;65.88;102397.68;105049;1288;62001;-80
2023/03/01 00:46:01;;;;;;;;;;;;;;;-4.17;65.90;102392.88;105171;1289;78174;-80
2023/03/01 00:48:47;;;;;;;;;;;;;;;-4.20;65.99;102392.29;105026;1288;71534;-80
2023/03/01 00:51:33;;;;;;;;;;;;;;;-4.19;66.02;102389.72;105073;1288;73110;-80
2023/03/01 00:54:20;;;;;;;;;;;;;;;-4.15;66.02;102388.27;105066;1288;60086;-80
2023/03/01 00:57:06;;;;;;;;;;;;;;;-4.11;66.14;102385.68;105063;1288;60164;-80
2023/03/01 00:59:52;;;;;;;;;;;;;;;-4.11;66.03;102386.52;105070;1288;74019;-80
2023/03/01 01:02:38;;;;;;;;;;;;;;;-4.13;66.04;102383.73;104985;1288;67287;-80
2023/03/01 01:05:24;;;;;;;;;;;;;;;-4.13;66.04;102385.38;105133;1288;71361;-80
2023/03/01 01:08:10;;;;;;;;;;;;;;;-4.14;66.09;102386.96;105132;1294;61972;-80
2023/03/01 01:10:56;;;;;;;;;;;;;;;-4.15;66.06;102385.38;105113;1290;60295;-80
2023/03/01 01:13:44;;;;;;;;;;;;;;;-4.15;66.10;102386.42;105015;1289;73043;-80
2023/03/01 01:16:30;;;;;;;;;;;;;;;-4.16;66.17;102384.16;104969;1290;71415;-79
2023/03/01 01:19:16;;;;;;;;;;;;;;;-4.16;66.03;102383.46;104952;1290;72768;-79
2023/03/01 01:22:03;;;;;;;;;;;;;;;-4.17;66.09;102387.98;104934;1291;60280;-79
2023/03/01 01:24:49;;;;;;;;;;;;;;;-4.19;66.18;102383.13;105007;1289;62529;-80
2023/03/01 01:27:35;;;;;;;;;;;;;;;-4.17;66.17;102383.59;104980;1289;76855;-79
2023/03/01 01:30:22;;;;;;;;;;;;;;;-4.17;66.13;102377.00;105050;1290;66365;-79
2023/03/01 01:33:08;;;;;;;;;;;;;;;-4.22;66.11;102373.31;105033;1290;73111;-80
2023/03/01 01:35:54;;;;;;;;;;;;;;;-4.22;66.14;102367.42;105036;1289;60309;-79
2023/03/01 01:38:42;;;;;;;;;;;;;;;-4.21;66.18;102363.77;105100;1289;60066;-80
2023/03/01 01:41:28;;;;;;;;;;;;;;;-4.25;66.18;102358.63;105110;1289;74983;-80
2023/03/01 01:44:35;;;;;;;;;;;;;;;-4.26;66.27;102359.34;105044;1293;67371;-79
2023/03/01 01:47:22;;;;;;;;;;;;;;;-4.28;66.30;102359.77;104574;1294;71412;-80
2023/03/01 01:50:15;;;;;;;;;;;;;;;-4.26;66.20;102355.00;104546;1294;59982;-79
2023/03/01 01:53:01;;;;;;;;;;;;;;;-4.28;66.26;102351.15;104688;1294;60667;-79
2023/03/01 01:55:50;;;;;;;;;;;;;;;-4.31;66.22;102340.67;104738;1294;74091;-79
2023/03/01 01:58:37;;;;;;;;;;;;;;;-4.30;66.28;102336.35;104649;1294;68793;-79
2023/03/01 02:01:23;;;;;;;;;;;;;;;-4.31;66.20;102324.85;104793;1294;71942;-81
2023/03/01 02:04:09;;;;;;;;;;;;;;;-4.33;66.29;102315.61;104599;1294;62027;-80
2023/03/01 02:06:59;;;;;;;;;;;;;;;-4.37;66.19;102314.48;104581;1294;60267;-80
2023/03/01 02:09:46;;;;;;;;;;;;;;;-4.37;66.32;102311.77;104570;1294;75153;-80
2023/03/01 02:12:34;;;;;;;;;;;;;;;-4.36;66.37;102305.45;104555;1299;67149;-80
2023/03/01 02:15:20;;;;;;;;;;;;;;;-4.37;66.36;102305.20;104632;1294;71906;-80
2023/03/01 02:18:07;;;;;;;;;;;;;;;-4.39;66.31;102305.42;104611;1294;62001;-80
2023/03/01 02:21:16;;;;;;;;;;;;;;;-4.39;66.51;102300.38;104585;1294;60112;-80
2023/03/01 02:24:19;;;;;;;;;;;;;;;-4.41;66.26;102300.42;104293;1296;75659;-81
2023/03/01 02:27:06;;;;;;;;;;;;;;;-4.44;66.36;102298.98;104459;1296;67368;-80
2023/03/01 02:29:52;;;;;;;;;;;;;;;-4.45;66.29;102295.20;104513;1296;71116;-80
2023/03/01 02:32:41;;;;;;;;;;;;;;;-4.46;66.38;102292.97;104431;1296;62084;-79
2023/03/01 02:35:27;;;;;;;;;;;;;;;-4.41;66.51;102290.25;104520;1297;61912;-79
2023/03/01 02:38:14;;;;;;;;;;;;;;;-4.40;66.46;102287.16;104529;1295;74277;-80
2023/03/01 02:41:02;;;;;;;;;;;;;;;-4.41;66.54;102284.44;104441;1296;68659;-80
2023/03/01 02:43:49;;;;;;;;;;;;;;;-4.43;66.54;102282.40;104401;1302;74102;-80
2023/03/01 02:46:41;;;;;;;;;;;;;;;-4.45;66.51;102281.13;104405;1297;63000;-80
2023/03/01 02:49:30;;;;;;;;;;;;;;;-4.44;66.51;102279.80;104538;1297;62145;-80
2023/03/01 02:52:35;;;;;;;;;;;;;;;-4.45;66.49;102281.91;104484;1296;74168;-80
2023/03/01 02:55:21;;;;;;;;;;;;;;;-4.48;66.53;102280.36;104295;1296;67835;-80
2023/03/01 02:58:08;;;;;;;;;;;;;;;-4.50;66.53;102283.56;104524;1297;72770;-80
2023/03/01 03:00:55;;;;;;;;;;;;;;;-4.52;66.51;102280.10;104696;1288;62092;-80
2023/03/01 03:03:41;;;;;;;;;;;;;;;-4.50;66.59;102279.90;104997;1290;60166;-80
2023/03/01 03:06:27;;;;;;;;;;;;;;;-4.48;66.68;102285.42;105288;1288;76166;-80
2023/03/01 03:09:14;;;;;;;;;;;;;;;-4.47;66.58;102286.14;105230;1293;67718;-80
2023/03/01 03:12:00;;;;;;;;;;;;;;;-4.48;66.60;102285.93;105089;1288;73110;-81
2023/03/01 03:14:46;;;;;;;;;;;;;;;-4.51;66.54;102290.21;105168;1293;62406;-80
2023/03/01 03:17:32;;;;;;;;;;;;;;;-4.56;66.51;102290.25;105215;1288;62303;-81
2023/03/01 03:20:20;;;;;;;;;;;;;;;-4.59;66.50;102290.34;105280;1290;75925;-80
2023/03/01 03:23:06;;;;;;;;;;;;;;;-4.62;66.47;102288.08;105135;1287;67155;-81
2023/03/01 03:25:52;;;;;;;;;;;;;;;-4.63;66.58;102284.48;105175;1288;71313;-80
2023/03/01 03:28:39;;;;;;;;;;;;;;;-4.66;66.43;102281.63;105128;1288;61995;-81
2023/03/01 03:31:26;;;;;;;;;;;;;;;-4.69;66.57;102282.95;105300;1289;62024;-80
2023/03/01 03:34:17;;;;;;;;;;;;;;;-4.68;66.61;102283.51;105145;1288;75363;-80
2023/03/01 03:38:01;;;;;;;;;;;;;;;-4.67;66.62;102285.55;106158;1288;67370;-80
2023/03/01 03:40:19;;;;;;;;;;;;;;;-4.66;66.66;102282.95;106174;1289;71750;-80
2023/03/01 03:43:10;;;;;;;;;;;;;;;-4.66;66.56;102282.46;106062;1288;60055;-80
2023/03/01 03:45:59;;;;;;;;;;;;;;;-4.65;66.57;102280.98;106098;1289;60177;-80
2023/03/01 03:48:45;;;;;;;;;;;;;;;-4.69;66.55;102284.78;106061;1288;76412;-80
2023/03/01 03:51:31;;;;;;;;;;;;;;;-4.69;66.62;102279.88;106053;1287;67878;-80
2023/03/01 03:54:17;;;;;;;;;;;;;;;-4.71;66.65;102281.48;106231;1288;72456;-80
2023/03/01 03:57:03;;;;;;;;;;;;;;;-4.70;66.70;102281.20;106083;1288;60033;-80
2023/03/01 03:59:49;;;;;;;;;;;;;;;-4.66;66.73;102284.81;105172;1291;62188;-80
2023/03/01 04:02:35;;;;;;;;;;;;;;;-4.65;66.72;102276.42;105296;1288;74769;-80
2023/03/01 04:05:22;;;;;;;;;;;;;;;-4.65;66.66;102274.59;105171;1288;67251;-80
2023/03/01 04:08:08;;;;;;;;;;;;;;;-4.65;66.71;102275.28;105016;1289;71401;-80
2023/03/01 04:10:59;;;;;;;;;;;;;;;-4.63;66.73;102269.83;105208;1291;61937;-80
2023/03/01 04:13:45;;;;;;;;;;;;;;;-4.64;66.69;102275.52;105276;1289;60372;-80
2023/03/01 04:16:31;;;;;;;;;;;;;;;-4.64;66.75;102278.99;105091;1290;74275;-80
2023/03/01 04:19:17;;;;;;;;;;;;;;;-4.65;66.69;102279.98;105275;1290;67193;-80
2023/03/01 04:22:09;;;;;;;;;;;;;;;-4.65;66.78;102281.85;105204;1289;72195;-80
2023/03/01 04:24:55;;;;;;;;;;;;;;;-4.65;66.80;102280.64;105088;1289;61294;-80
2023/03/01 04:27:41;;;;;;;;;;;;;;;-4.64;66.75;102281.08;105152;1290;60087;-81
2023/03/01 04:30:27;;;;;;;;;;;;;;;-4.63;66.74;102278.11;105227;1290;74542;-80
2023/03/01 04:33:13;;;;;;;;;;;;;;;-4.64;66.71;102272.15;105248;1289;67544;-81
2023/03/01 04:35:59;;;;;;;;;;;;;;;-4.62;66.88;102266.68;105227;1290;71447;-80
2023/03/01 04:38:47;;;;;;;;;;;;;;;-4.61;66.84;102268.64;105326;1288;61216;-81
2023/03/01 04:41:33;;;;;;;;;;;;;;;-4.62;66.73;102262.66;105129;1291;60052;-81
2023/03/01 04:44:19;;;;;;;;;;;;;;;-4.63;66.81;102258.92;105337;1289;75706;-81
2023/03/01 04:47:05;;;;;;;;;;;;;;;-4.62;66.83;102255.98;105198;1291;68078;-81
2023/03/01 04:49:51;;;;;;;;;;;;;;;-4.66;66.79;102256.88;105232;1289;71177;-81
2023/03/01 04:52:37;;;;;;;;;;;;;;;-4.68;66.83;102252.35;105276;1289;60539;-82
2023/03/01 04:55:25;;;;;;;;;;;;;;;-4.66;66.84;102252.64;105088;1290;61512;-81
2023/03/01 04:58:11;;;;;;;;;;;;;;;-4.66;66.82;102252.52;105987;1289;75056;-82
2023/03/01 05:00:57;;;;;;;;;;;;;;;-4.67;66.84;102259.16;105991;1293;68505;-81
2023/03/01 05:03:44;;;;;;;;;;;;;;;-4.67;66.88;102261.86;105997;1289;71185;-82
2023/03/01 05:06:30;;;;;;;;;;;;;;;-4.63;66.95;102266.51;105912;1293;59837;-81
2023/03/01 05:09:17;;;;;;;;;;;;;;;-4.62;66.85;102269.93;106054;1288;60017;-80
2023/03/01 05:12:02;;;;;;;;;;;;;;;-4.61;66.83;102267.42;106023;1291;73999;-81
2023/03/01 05:14:50;;;;;;;;;;;;;;;-4.66;66.77;102263.28;106180;1290;67544;-76
2023/03/01 05:17:36;;;;;;;;;;;;;;;-4.67;66.79;102257.13;105992;1288;72615;-75
2023/03/01 05:20:22;;;;;;;;;;;;;;;-4.69;66.86;102253.32;106178;1288;60088;-76
2023/03/01 05:23:09;;;;;;;;;;;;;;;-4.70;66.89;102255.45;106166;1288;59749;-76
2023/03/01 05:25:57;;;;;;;;;;;;;;;-4.69;66.93;102254.70;106175;1288;75397;-76
2023/03/01 05:28:43;;;;;;;;;;;;;;;-4.67;66.82;102251.06;106085;1288;67421;-76
2023/03/01 05:31:30;;;;;;;;;;;;;;;-4.69;66.87;102247.63;106120;1288;72878;-76
2023/03/01 05:34:16;;;;;;;;;;;;;;;-4.70;66.88;102249.86;106160;1289;59870;-76
2023/03/01 05:37:02;;;;;;;;;;;;;;;-4.72;66.89;102254.64;106036;1288;60105;-76
2023/03/01 05:39:50;;;;;;;;;;;;;;;-4.73;66.89;102249.85;106038;1289;75947;-77
2023/03/01 05:42:36;;;;;;;;;;;;;;;-4.73;67.01;102243.46;106185;1288;69547;-77
2023/03/01 05:45:23;;;;;;;;;;;;;;;-4.71;67.04;102242.09;106090;1287;72022;-76
2023/03/01 05:48:10;;;;;;;;;;;;;;;-4.66;67.16;102240.53;106019;1290;59755;-75
2023/03/01 05:50:59;;;;;;;;;;;;;;;-4.60;67.13;102234.02;105981;1289;60023;-75
2023/03/01 05:53:45;;;;;;;;;;;;;;;-4.55;67.08;102231.74;106136;1288;73984;-75
2023/03/01 05:56:34;;;;;;;;;;;;;;;-4.52;67.08;102231.25;106104;1288;68460;-75
2023/03/01 05:59:20;;;;;;;;;;;;;;;-4.49;67.08;102229.83;106057;1289;72868;-75
2023/03/01 06:02:06;;;;;;;;;;;;;;;-4.46;67.11;102228.02;106011;1289;59824;-74
2023/03/01 06:04:52;;;;;;;;;;;;;;;-4.41;67.16;102231.23;106032;1288;60175;-74
2023/03/01 06:07:39;;;;;;;;;;;;;;;-4.34;67.24;102234.59;106123;1288;74817;-74
2023/03/01 06:10:25;;;;;;;;;;;;;;;-4.24;67.38;102233.45;106130;1288;69087;-74
2023/03/01 06:13:11;;;;;;;;;;;;;;;-4.12;67.55;102243.30;105960;1288;72013;-74
2023/03/01 06:15:57;;;;;;;;;;;;;;;-3.98;67.58;102246.84;106137;1288;60145;-75
2023/03/01 06:18:43;;;;;;;;;;;;;;;-3.84;67.65;102245.79;106144;1288;60029;-75
2023/03/01 06:21:29;;;;;;;;;;;;;;;-3.70;67.58;102254.65;106130;1288;74517;-75
2023/03/01 06:24:15;;;;;;;;;;;;;;;-3.58;67.55;102256.73;106088;1289;67251;-75
2023/03/01 06:27:01;;;;;;;;;;;;;;;-3.48;67.63;102255.73;106163;1288;70745;-75
2023/03/01 06:29:47;;;;;;;;;;;;;;;-3.38;67.56;102252.89;106132;1288;60524;-75
2023/03/01 06:32:32;;;;;;;;;;;;;;;-3.27;67.69;102250.06;105595;1288;60291;-75
2023/03/01 06:35:19;;;;;;;;;;;;;;;-3.15;67.73;102249.36;105055;1288;75294;-74
2023/03/01 06:38:05;;;;;;;;;;;;;;;-3.03;67.75;102248.95;104942;1292;69890;-74
2023/03/01 06:40:53;;;;;;;;;;;;;;;-2.89;67.87;102247.98;105002;1288;74516;-74
2023/03/01 06:43:40;;;;;;;;;;;;;;;-2.73;67.86;102250.20;104979;1289;60538;-74
2023/03/01 06:46:26;;;;;;;;;;;;;;;-2.53;68.07;102251.09;105068;1288;61885;-74
2023/03/01 06:49:12;;;;;;;;;;;;;;;-2.24;68.16;102250.76;105113;1291;74190;-74
2023/03/01 06:51:58;;;;;;;;;;;;;;;-1.91;68.16;102243.95;105053;1288;68549;-74
2023/03/01 06:54:44;;;;;;;;;;;;;;;-1.53;68.22;102248.27;105052;1288;72560;-74
2023/03/01 06:57:30;;;;;;;;;;;;;;;-1.06;68.26;102247.78;105074;1288;62187;-74
2023/03/01 07:00:17;;;;;;;;;;;;;;;-0.60;68.20;102247.14;104966;1291;60165;-74
2023/03/01 07:03:03;;;;;;;;;;;;;;;-0.05;68.33;102249.41;105054;1291;75640;-74
2023/03/01 07:05:52;;;;;;;;;;;;;;;0.52;68.26;102246.95;105135;1288;67170;-74
2023/03/01 07:08:38;;;;;;;;;;;;;;;1.13;68.30;102249.27;104935;1288;71896;-74
2023/03/01 07:11:24;;;;;;;;;;;;;;;1.73;68.26;102250.76;105011;1288;61590;-74
2023/03/01 07:14:10;;;;;;;;;;;;;;;2.28;68.14;102250.30;105090;1292;63176;-74
2023/03/01 07:16:56;;;;;;;;;;;;;;;2.79;68.23;102249.77;105008;1288;74062;-74
2023/03/01 07:19:44;;;;;;;;;;;;;;;3.23;68.17;102251.38;105040;1287;68681;-75
2023/03/01 07:22:31;;;;;;;;;;;;;;;3.61;68.26;102245.91;97419;1292;5002844;-75
2023/03/01 07:25:17;;;;;;;;;;;;;;;4.02;68.33;102244.54;104969;1290;60554;-75
2023/03/01 07:28:03;;;;;;;;;;;;;;;4.39;68.31;102248.41;104975;1291;61947;-75
2023/03/01 07:30:50;;;;;;;;;;;;;;;4.77;68.41;102248.67;105044;1290;79679;-75
2023/03/01 07:33:36;;;;;;;;;;;;;;;5.22;68.53;102247.95;104983;1290;66934;-74
2023/03/01 07:36:22;;;;;;;;;;;;;;;5.67;68.38;102253.44;104871;1295;71158;-74
2023/03/01 07:39:09;;;;;;;;;;;;;;;6.08;68.51;102252.95;105103;1290;62165;-74
2023/03/01 07:41:55;;;;;;;;;;;;;;;6.45;68.51;102249.33;105852;1289;60077;-74
2023/03/01 07:44:41;;;;;;;;;;;;;;;6.74;68.57;102248.39;106067;1289;75074;-75
2023/03/01 07:47:27;;;;;;;;;;;;;;;6.98;68.54;102248.63;106053;1290;68866;-75
2023/03/01 07:50:13;;;;;;;;;;;;;;;7.23;68.61;102245.48;106022;1289;71397;-75
2023/03/01 07:52:59;;;;;;;;;;;;;;;7.49;68.66;102247.27;105996;1289;59248;-75
2023/03/01 07:55:45;;;;;;;;;;;;;;;7.73;68.80;102246.27;105955;1291;59959;-75
2023/03/01 07:58:31;;;;;;;;;;;;;;;7.91;68.79;102243.35;106086;1289;74224;-76
2023/03/01 08:01:18;;;;;;;;;;;;;;;8.16;68.84;102242.67;105928;1291;69557;-76
2023/03/01 08:04:06;;;;;;;;;;;;;;;8.44;68.88;102240.30;106086;1290;73138;-76
2023/03/01 08:06:53;;;;;;;;;;;;;;;8.69;68.83;102238.20;105997;1288;60256;-76
2023/03/01 08:09:39;;;;;;;;;;;;;;;8.89;68.95;102233.17;105890;1291;60598;-76
2023/03/01 08:12:27;;;;;;;;;;;;;;;9.12;69.02;102228.56;105997;1290;75435;-76
2023/03/01 08:15:13;;;;;;;;;;;;;;;9.41;68.83;102229.01;106075;1291;69151;-76
2023/03/01 08:17:59;;;;;;;;;;;;;;;9.66;68.97;102226.42;106000;1289;72458;-76
2023/03/01 08:20:45;;;;;;;;;;;;;;;9.79;68.66;102225.39;106011;1290;60442;-76
2023/03/01 08:23:31;;;;;;;;;;;;;;;9.79;68.59;102222.64;106036;1291;60140;-76
2023/03/01 08:26:19;;;;;;;;;;;;;;;9.83;68.57;102221.33;105642;1293;75250;-75
2023/03/01 08:29:05;;;;;;;;;;;;;;;9.82;68.54;102218.89;104974;1291;67502;-75
2023/03/01 08:31:51;;;;;;;;;;;;;;;9.65;68.61;102215.05;105000;1291;72506;-75
2023/03/01 08:34:37;;;;;;;;;;;;;;;9.30;68.47;102209.55;105035;1290;62440;-75
2023/03/01 08:37:23;;;;;;;;;;;;;;;8.85;68.58;102214.36;105025;1293;62182;-74
2023/03/01 08:40:10;;;;;;;;;;;;;;;8.41;68.79;102213.09;105076;1292;75326;-74
2023/03/01 08:42:57;;;;;;;;;;;;;;;7.91;68.61;102211.59;105030;1291;69900;-74
2023/03/01 08:45:43;;;;;;;;;;;;;;;7.44;68.73;102207.70;105101;1293;74135;-74
2023/03/01 08:48:29;;;;;;;;;;;;;;;7.02;68.53;102205.53;105047;1291;61931;-74
2023/03/01 08:51:17;;;;;;;;;;;;;;;6.71;68.38;102204.26;104682;1299;62295;-74
2023/03/01 08:54:07;;;;;;;;;;;;;;;6.44;68.44;102203.73;105061;1289;73904;-75
2023/03/01 08:56:53;;;;;;;;;;;;;;;6.21;68.28;102207.25;104964;1291;68764;-75
2023/03/01 08:59:40;;;;;;;;;;;;;;;6.03;68.28;102205.55;104907;1291;71555;-75
2023/03/01 09:02:26;;;;;;;;;;;;;;;5.88;68.15;102207.84;105029;1290;60283;-74
2023/03/01 09:05:12;;;;;;;;;;;;;;;5.71;68.01;102204.61;105006;1289;61803;-75
2023/03/01 09:07:58;;;;;;;;;;;;;;;5.48;67.72;102204.11;105023;1288;74377;-75
2023/03/01 09:10:45;;;;;;;;;;;;;;;5.23;67.65;102199.77;104998;1293;67387;-75
2023/03/01 09:13:31;;;;;;;;;;;;;;;5.10;67.70;102200.90;105040;1293;71958;-74
2023/03/01 09:16:19;;;;;;;;;;;;;;;4.99;67.51;102196.43;104920;1291;62305;-74
2023/03/01 09:19:05;;;;;;;;;;;;;;;4.90;67.55;102193.58;104912;1289;60494;-74
2023/03/01 09:21:55;;;;;;;;;;;;;;;4.84;67.52;102191.01;105055;1291;73915;-75
2023/03/01 09:24:41;;;;;;;;;;;;;;;4.79;67.44;102186.91;105026;1290;68695;-74
2023/03/01 09:27:27;;;;;;;;;;;;;;;4.69;67.20;102186.92;105031;1290;72906;-74
2023/03/01 09:30:14;;;;;;;;;;;;;;;4.60;67.14;102187.67;104990;1289;61952;-74
2023/03/01 09:33:00;;;;;;;;;;;;;;;4.58;67.14;102187.25;104989;1291;62045;-74
2023/03/01 09:35:47;;;;;;;;;;;;;;;4.52;67.04;102184.48;105036;1293;76123;-75
2023/03/01 09:38:33;;;;;;;;;;;;;;;4.47;67.06;102190.45;105009;1290;70464;-74
2023/03/01 09:41:22;;;;;;;;;;;;;;;4.47;67.08;102191.99;105059;1290;75457;-74
2023/03/01 09:44:35;;;;;;;;;;;;;;;4.48;67.01;102199.05;104983;1291;61823;-74
2023/03/01 09:47:27;;;;;;;;;;;;;;;4.49;66.85;102196.52;104996;1289;62328;-74
2023/03/01 09:50:16;;;;;;;;;;;;;;;4.54;66.82;102198.36;105029;1293;74120;-74
2023/03/01 09:53:09;;;;;;;;;;;;;;;4.55;66.78;102198.77;105016;1289;69107;-74
2023/03/01 09:55:58;;;;;;;;;;;;;;;4.59;66.70;102193.63;105020;1291;73426;-74
2023/03/01 09:59:05;;;;;;;;;;;;;;;4.68;66.67;102186.88;104899;1291;60213;-74
2023/03/01 10:02:11;;;;;;;;;;;;;;;4.75;66.60;102181.14;104318;1297;61972;-74
2023/03/01 10:05:05;;;;;;;;;;;;;;;4.80;66.63;102181.98;103754;1308;75465;-73
2023/03/01 10:08:10;;;;;;;;;;;;;;;4.78;66.51;102181.55;103743;1305;67304;-74
2023/03/01 10:10:57;;;;;;;;;;;;;;;4.76;66.57;102183.55;103599;1305;72790;-75
2023/03/01 10:14:04;;;;;;;;;;;;;;;4.71;66.35;102182.20;103688;1311;61990;-74
2023/03/01 10:17:02;;;;;;;;;;;;;;;4.64;66.41;102186.44;103379;1305;64524;-75
2023/03/01 10:19:48;;;;;;;;;;;;;;;4.60;66.30;102188.71;103635;1309;74923;-75
2023/03/01 10:22:36;;;;;;;;;;;;;;;4.59;66.34;102186.44;103655;1305;72377;-75
2023/03/01 10:25:44;;;;;;;;;;;;;;;4.59;66.38;102184.71;103652;1305;72483;-74
2023/03/01 10:28:36;;;;;;;;;;;;;;;4.52;66.28;102180.91;103623;1305;62135;-74
2023/03/01 10:31:27;;;;;;;;;;;;;;;4.46;66.23;102177.45;103690;1305;64343;-75
2023/03/01 10:34:17;;;;;;;;;;;;;;;4.46;66.30;102175.23;103633;1305;76688;-75
2023/03/01 10:37:11;;;;;;;;;;;;;;;4.49;66.35;102179.60;103672;1305;69363;-75
2023/03/01 10:40:05;;;;;;;;;;;;;;;4.50;66.33;102173.84;104040;1300;72824;-74
2023/03/01 10:42:52;;;;;;;;;;;;;;;4.58;66.50;102169.15;104707;1290;61971;-74
2023/03/01 10:45:39;;;;;;;;;;;;;;;4.69;66.45;102163.85;104874;1289;62019;-74
2023/03/01 10:48:27;;;;;;;;;;;;;;;4.78;66.32;102164.13;104901;1291;74556;-74
2023/03/01 10:51:20;;;;;;;;;;;;;;;4.76;66.31;102153.30;104896;1290;68475;-74
2023/03/01 10:54:15;;;;;;;;;;;;;;;4.75;66.43;102149.69;104887;1293;72917;-74
2023/03/01 10:57:02;;;;;;;;;;;;;;;4.74;66.29;102146.42;104934;1289;60500;-74
2023/03/01 11:00:00;;;;;;;;;;;;;;;4.69;66.28;102137.88;104801;1289;61951;-74
2023/03/01 11:02:58;;;;;;;;;;;;;;;4.69;66.40;102135.16;104934;1291;74737;-73
2023/03/01 11:05:56;;;;;;;;;;;;;;;4.74;66.40;102130.88;104904;1290;67308;-74
2023/03/01 11:08:44;;;;;;;;;;;;;;;4.81;66.38;102132.46;104954;1289;72188;-74
2023/03/01 11:11:34;;;;;;;;;;;;;;;4.86;66.31;102130.09;105064;1292;61920;-74
2023/03/01 11:14:24;;;;;;;;;;;;;;;4.91;66.31;102124.92;105032;1289;62072;-74
2023/03/01 11:17:17;;;;;;;;;;;;;;;4.95;66.24;102121.29;105048;1292;74319;-74
2023/03/01 11:20:10;;;;;;;;;;;;;;;4.98;66.50;102120.54;104975;1293;68167;-73
2023/03/01 11:22:56;;;;;;;;;;;;;;;5.02;66.44;102121.48;105007;1288;71260;-73
2023/03/01 11:25:43;;;;;;;;;;;;;;;5.05;66.46;102122.28;104952;1294;62955;-73
2023/03/01 11:28:30;;;;;;;;;;;;;;;5.13;66.52;102118.08;105069;1290;64112;-73
2023/03/01 11:31:16;;;;;;;;;;;;;;;5.22;66.49;102122.27;104997;1289;75519;-75
2023/03/01 11:34:06;;;;;;;;;;;;;;;5.25;66.42;102116.20;104789;1289;67229;-76
2023/03/01 11:36:58;;;;;;;;;;;;;;;5.29;66.46;102115.46;104957;1290;72189;-76
2023/03/01 11:39:53;;;;;;;;;;;;;;;5.33;66.39;102109.08;104913;1293;62328;-74
2023/03/01 11:42:42;;;;;;;;;;;;;;;5.38;66.49;102102.91;104868;1288;61979;-75
2023/03/01 11:45:34;;;;;;;;;;;;;;;5.41;66.38;102098.73;104963;1290;73945;-75
2023/03/01 11:48:54;;;;;;;;;;;;;;;5.39;66.42;102093.00;105009;1293;69087;-74
2023/03/01 11:51:40;;;;;;;;;;;;;;;5.43;66.50;102095.34;104419;1296;71314;-74
2023/03/01 11:54:31;;;;;;;;;;;;;;;5.48;66.48;102093.96;104395;1295;60512;-74
2023/03/01 11:57:41;;;;;;;;;;;;;;;5.50;66.44;102090.95;104382;1297;63485;-75
2023/03/01 12:00:42;;;;;;;;;;;;;;;5.57;66.46;102081.23;103962;1302;74067;-75
2023/03/01 12:03:33;;;;;;;;;;;;;;;5.64;66.50;102076.46;104012;1302;69995;-75
2023/03/01 12:06:38;;;;;;;;;;;;;;;5.68;66.52;102068.36;103922;1300;71398;-75
2023/03/01 12:09:36;;;;;;;;;;;;;;;5.68;66.53;102063.38;104034;1302;61929;-75
2023/03/01 12:12:30;;;;;;;;;;;;;;;5.68;66.61;102055.71;104008;1305;62401;-75
2023/03/01 12:15:20;;;;;;;;;;;;;;;5.75;66.63;102053.98;103902;1302;74218;-74
2023/03/01 12:18:24;;;;;;;;;;;;;;;5.80;66.47;102053.41;104010;1302;68172;-74
2023/03/01 12:21:49;;;;;;;;;;;;;;;5.84;66.46;102053.54;103904;1303;72576;-75
2023/03/01 12:24:58;;;;;;;;;;;;;;;5.87;66.43;102047.13;103400;1308;60181;-75
2023/03/01 12:28:03;;;;;;;;;;;;;;;5.88;66.47;102045.11;103689;1302;60675;-77
2023/03/01 12:30:57;;;;;;;;;;;;;;;5.86;66.36;102042.29;103832;1304;75622;-74
2023/03/01 12:33:56;;;;;;;;;;;;;;;5.87;66.46;102036.34;103932;1302;68198;-75
2023/03/01 12:36:48;;;;;;;;;;;;;;;5.91;66.43;102035.96;103952;1302;72780;-75
2023/03/01 12:39:55;;;;;;;;;;;;;;;5.98;66.37;102037.69;104332;1297;61960;-75
2023/03/01 12:42:51;;;;;;;;;;;;;;;5.95;66.14;102034.35;105423;1297;60802;-75
2023/03/01 12:45:47;;;;;;;;;;;;;;;5.98;66.22;102030.14;104666;1299;74363;-75
2023/03/01 12:48:41;;;;;;;;;;;;;;;5.99;66.16;102034.27;104379;1296;68571;-75
2023/03/01 12:51:30;;;;;;;;;;;;;;;6.03;66.18;102030.61;104247;1299;71155;-79
2023/03/01 12:54:22;;;;;;;;;;;;;;;6.06;66.09;102026.59;104092;1302;61925;-80
2023/03/01 12:57:15;;;;;;;;;;;;;;;6.13;66.01;102024.02;104969;1289;62040;-80
2023/03/01 13:00:40;;;;;;;;;;;;;;;6.16;66.00;102020.84;104792;1290;74742;-80
2023/03/01 13:03:43;;;;;;;;;;;;;;;6.21;65.89;102018.75;104338;1297;66961;-79
2023/03/01 13:06:44;;;;;;;;;;;;;;;6.23;66.00;102013.98;104323;1300;75585;-80
2023/03/01 13:10:01;;;;;;;;;;;;;;;6.28;66.05;102007.58;104268;1297;62105;-79
2023/03/01 13:12:56;;;;;;;;;;;;;;;6.29;66.02;102005.20;103851;1308;61968;-80
2023/03/01 13:15:42;;;;;;;;;;;;;;;6.33;65.96;101997.08;103775;1305;74181;-80
2023/03/01 13:18:29;;;;;;;;;;;;;;;6.29;65.80;102004.52;103787;1308;68578;-80
2023/03/01 13:21:29;;;;;;;;;;;;;;;6.27;65.78;102003.80;103703;1308;75428;-80
2023/03/01 13:24:33;;;;;;;;;;;;;;;6.29;65.81;102000.91;103792;1302;61935;-80
2023/03/01 13:27:29;;;;;;;;;;;;;;;6.33;65.83;102006.83;103841;1305;61923;-80
2023/03/01 13:30:33;;;;;;;;;;;;;;;6.31;65.89;102000.64;103689;1306;74221;-80
2023/03/01 13:33:48;;;;;;;;;;;;;;;6.24;65.79;102000.13;103837;1302;69258;-79
2023/03/01 13:36:55;;;;;;;;;;;;;;;6.21;65.92;101999.73;103946;1308;71390;-75
2023/03/01 13:39:41;;;;;;;;;;;;;;;6.21;65.82;102000.93;103300;1312;62091;-75
2023/03/01 13:42:31;;;;;;;;;;;;;;;6.19;65.75;101996.77;103354;1314;62201;-76
2023/03/01 13:45:32;;;;;;;;;;;;;;;6.19;65.71;101996.77;103286;1311;78791;-76
2023/03/01 13:48:38;;;;;;;;;;;;;;;6.19;65.84;101997.30;103819;1310;67455;-76
2023/03/01 13:51:26;;;;;;;;;;;;;;;6.19;65.87;102002.77;103300;1311;72701;-76
2023/03/01 13:54:12;;;;;;;;;;;;;;;6.18;65.76;101993.14;103214;1317;62145;-76
2023/03/01 13:57:00;;;;;;;;;;;;;;;6.16;65.93;101994.64;103409;1307;60349;-76
2023/03/01 13:59:49;;;;;;;;;;;;;;;6.17;65.89;101990.55;103232;1311;75798;-76
2023/03/01 14:02:36;;;;;;;;;;;;;;;6.15;65.82;101990.02;103278;1313;68486;-76
2023/03/01 14:05:22;;;;;;;;;;;;;;;6.14;65.91;101990.30;103430;1309;72584;-76
2023/03/01 14:08:19;;;;;;;;;;;;;;;6.11;65.86;101984.08;103332;1313;62201;-76
2023/03/01 14:11:44;;;;;;;;;;;;;;;6.09;65.87;101981.63;103233;1310;62005;-76
2023/03/01 14:14:41;;;;;;;;;;;;;;;6.10;65.84;101984.57;103058;1311;75441;-76
2023/03/01 14:17:47;;;;;;;;;;;;;;;6.09;65.90;101983.67;103473;1305;70040;-76
2023/03/01 14:20:39;;;;;;;;;;;;;;;6.10;65.84;101983.70;103731;1306;71184;-76
2023/03/01 14:23:26;;;;;;;;;;;;;;;6.11;65.73;101978.94;103741;1307;62107;-76
2023/03/01 14:26:13;;;;;;;;;;;;;;;6.11;65.83;101980.83;103767;1307;64377;-76